sensor_id;sensor_type;location;lat;lon;timestamp;P1;durP1;ratioP1;P2;durP2;ratioP2
21546;SDS011;41275;51.912;4.388;2023-12-04T00:03:31;10.90;;;5.07;;
21546;SDS011;41275;51.912;4.388;2023-12-04T00:08:53;11.73;;;4.95;;
21546;SDS011;41275;51.912;4.388;2023-12-04T00:14:14;12.45;;;4.70;;
21546;SDS011;41275;51.912;4.388;2023-12-04T00:19:35;11.37;;;5.00;;
21546;SDS011;41275;51.912;4.388;2023-12-04T00:24:56;10.82;;;4.60;;
21546;SDS011;41275;51.912;4.388;2023-12-04T00:30:18;9.13;;;4.38;;
21546;SDS011;41275;51.912;4.388;2023-12-04T00:35:39;12.03;;;4.37;;
21546;SDS011;41275;51.912;4.388;2023-12-04T00:41:00;10.10;;;4.10;;
21546;SDS011;41275;51.912;4.388;2023-12-04T00:46:21;10.77;;;4.65;;
21546;SDS011;41275;51.912;4.388;2023-12-04T00:51:42;10.15;;;4.28;;
21546;SDS011;41275;51.912;4.388;2023-12-04T00:57:04;9.90;;;4.43;;
21546;SDS011;41275;51.912;4.388;2023-12-04T01:02:25;9.70;;;4.15;;
21546;SDS011;41275;51.912;4.388;2023-12-04T01:07:46;10.00;;;4.15;;
21546;SDS011;41275;51.912;4.388;2023-12-04T01:13:07;8.87;;;4.30;;
21546;SDS011;41275;51.912;4.388;2023-12-04T01:18:29;10.63;;;4.13;;
21546;SDS011;41275;51.912;4.388;2023-12-04T01:23:50;12.18;;;4.38;;
21546;SDS011;41275;51.912;4.388;2023-12-04T01:29:11;9.67;;;3.90;;
21546;SDS011;41275;51.912;4.388;2023-12-04T01:34:32;10.75;;;3.85;;
21546;SDS011;41275;51.912;4.388;2023-12-04T01:39:54;10.98;;;3.97;;
21546;SDS011;41275;51.912;4.388;2023-12-04T01:45:15;12.05;;;4.40;;
21546;SDS011;41275;51.912;4.388;2023-12-04T01:50:36;8.82;;;3.40;;
21546;SDS011;41275;51.912;4.388;2023-12-04T01:55:59;9.40;;;3.78;;
21546;SDS011;41275;51.912;4.388;2023-12-04T02:01:20;8.20;;;3.50;;
21546;SDS011;41275;51.912;4.388;2023-12-04T02:06:42;8.75;;;3.30;;
21546;SDS011;41275;51.912;4.388;2023-12-04T02:12:04;7.77;;;3.80;;
21546;SDS011;41275;51.912;4.388;2023-12-04T02:17:26;10.25;;;3.60;;
21546;SDS011;41275;51.912;4.388;2023-12-04T02:22:49;8.10;;;3.58;;
21546;SDS011;41275;51.912;4.388;2023-12-04T02:28:11;9.13;;;3.17;;
21546;SDS011;41275;51.912;4.388;2023-12-04T02:33:36;9.27;;;3.35;;
21546;SDS011;41275;51.912;4.388;2023-12-04T02:39:00;9.23;;;3.53;;
21546;SDS011;41275;51.912;4.388;2023-12-04T02:44:21;7.50;;;3.17;;
21546;SDS011;41275;51.912;4.388;2023-12-04T02:49:42;7.10;;;3.10;;
21546;SDS011;41275;51.912;4.388;2023-12-04T02:55:04;9.00;;;3.40;;
21546;SDS011;41275;51.912;4.388;2023-12-04T03:00:26;6.78;;;3.15;;
21546;SDS011;41275;51.912;4.388;2023-12-04T03:05:47;7.90;;;3.05;;
21546;SDS011;41275;51.912;4.388;2023-12-04T03:11:08;7.13;;;3.07;;
21546;SDS011;41275;51.912;4.388;2023-12-04T03:16:29;8.47;;;3.20;;
21546;SDS011;41275;51.912;4.388;2023-12-04T03:21:50;8.13;;;2.90;;
21546;SDS011;41275;51.912;4.388;2023-12-04T03:27:12;7.07;;;2.92;;
21546;SDS011;41275;51.912;4.388;2023-12-04T03:32:33;7.70;;;3.22;;
21546;SDS011;41275;51.912;4.388;2023-12-04T03:37:54;5.80;;;2.50;;
21546;SDS011;41275;51.912;4.388;2023-12-04T03:43:15;7.15;;;3.30;;
21546;SDS011;41275;51.912;4.388;2023-12-04T03:48:37;6.97;;;3.00;;
21546;SDS011;41275;51.912;4.388;2023-12-04T03:53:58;6.43;;;2.85;;
21546;SDS011;41275;51.912;4.388;2023-12-04T03:59:19;6.77;;;3.23;;
21546;SDS011;41275;51.912;4.388;2023-12-04T04:04:40;7.07;;;2.90;;
21546;SDS011;41275;51.912;4.388;2023-12-04T04:10:02;5.68;;;2.58;;
21546;SDS011;41275;51.912;4.388;2023-12-04T04:15:25;7.80;;;3.13;;
21546;SDS011;41275;51.912;4.388;2023-12-04T04:20:46;7.88;;;3.05;;
21546;SDS011;41275;51.912;4.388;2023-12-04T04:26:08;5.97;;;2.78;;
21546;SDS011;41275;51.912;4.388;2023-12-04T04:31:29;6.87;;;3.20;;
21546;SDS011;41275;51.912;4.388;2023-12-04T04:36:50;7.82;;;3.00;;
21546;SDS011;41275;51.912;4.388;2023-12-04T04:42:11;6.45;;;2.55;;
21546;SDS011;41275;51.912;4.388;2023-12-04T04:47:32;6.03;;;2.50;;
21546;SDS011;41275;51.912;4.388;2023-12-04T04:52:54;6.23;;;2.70;;
21546;SDS011;41275;51.912;4.388;2023-12-04T04:58:15;6.43;;;2.50;;
21546;SDS011;41275;51.912;4.388;2023-12-04T05:03:37;6.93;;;2.72;;
21546;SDS011;41275;51.912;4.388;2023-12-04T05:08:58;8.60;;;3.05;;
21546;SDS011;41275;51.912;4.388;2023-12-04T05:14:20;10.40;;;3.20;;
21546;SDS011;41275;51.912;4.388;2023-12-04T05:19:41;7.20;;;2.72;;
21546;SDS011;41275;51.912;4.388;2023-12-04T05:25:02;7.30;;;3.10;;
21546;SDS011;41275;51.912;4.388;2023-12-04T05:30:23;6.68;;;2.88;;
21546;SDS011;41275;51.912;4.388;2023-12-04T05:35:46;6.38;;;2.72;;
21546;SDS011;41275;51.912;4.388;2023-12-04T05:41:08;6.03;;;2.85;;
21546;SDS011;41275;51.912;4.388;2023-12-04T05:46:30;6.65;;;3.20;;
21546;SDS011;41275;51.912;4.388;2023-12-04T05:51:51;6.82;;;3.10;;
21546;SDS011;41275;51.912;4.388;2023-12-04T05:57:12;6.13;;;2.93;;
21546;SDS011;41275;51.912;4.388;2023-12-04T06:02:34;7.60;;;3.10;;
21546;SDS011;41275;51.912;4.388;2023-12-04T06:07:55;9.48;;;3.20;;
21546;SDS011;41275;51.912;4.388;2023-12-04T06:13:16;7.13;;;3.10;;
21546;SDS011;41275;51.912;4.388;2023-12-04T06:18:38;7.35;;;2.90;;
21546;SDS011;41275;51.912;4.388;2023-12-04T06:23:59;7.30;;;3.10;;
21546;SDS011;41275;51.912;4.388;2023-12-04T06:29:21;7.18;;;2.95;;
21546;SDS011;41275;51.912;4.388;2023-12-04T06:34:42;7.37;;;3.20;;
21546;SDS011;41275;51.912;4.388;2023-12-04T06:40:04;6.95;;;3.15;;
21546;SDS011;41275;51.912;4.388;2023-12-04T06:45:29;6.43;;;3.33;;
21546;SDS011;41275;51.912;4.388;2023-12-04T06:50:53;7.47;;;3.10;;
21546;SDS011;41275;51.912;4.388;2023-12-04T06:56:14;5.97;;;2.90;;
21546;SDS011;41275;51.912;4.388;2023-12-04T07:01:36;6.37;;;2.67;;
21546;SDS011;41275;51.912;4.388;2023-12-04T07:06:57;6.53;;;2.80;;
21546;SDS011;41275;51.912;4.388;2023-12-04T07:12:21;6.33;;;2.73;;
21546;SDS011;41275;51.912;4.388;2023-12-04T07:17:43;5.73;;;2.50;;
21546;SDS011;41275;51.912;4.388;2023-12-04T07:23:04;5.85;;;2.80;;
21546;SDS011;41275;51.912;4.388;2023-12-04T07:28:25;5.47;;;2.75;;
21546;SDS011;41275;51.912;4.388;2023-12-04T07:33:46;7.10;;;2.77;;
21546;SDS011;41275;51.912;4.388;2023-12-04T07:39:07;6.65;;;2.80;;
21546;SDS011;41275;51.912;4.388;2023-12-04T07:44:29;7.40;;;2.70;;
21546;SDS011;41275;51.912;4.388;2023-12-04T07:49:51;7.35;;;3.58;;
21546;SDS011;41275;51.912;4.388;2023-12-04T07:55:12;5.47;;;2.65;;
21546;SDS011;41275;51.912;4.388;2023-12-04T08:00:33;5.23;;;2.77;;
21546;SDS011;41275;51.912;4.388;2023-12-04T08:05:54;6.43;;;2.72;;
21546;SDS011;41275;51.912;4.388;2023-12-04T08:11:16;7.00;;;3.03;;
21546;SDS011;41275;51.912;4.388;2023-12-04T08:16:38;6.67;;;3.00;;
21546;SDS011;41275;51.912;4.388;2023-12-04T08:21:59;6.90;;;3.20;;
21546;SDS011;41275;51.912;4.388;2023-12-04T08:27:20;6.90;;;2.80;;
21546;SDS011;41275;51.912;4.388;2023-12-04T08:32:42;5.07;;;2.70;;
21546;SDS011;41275;51.912;4.388;2023-12-04T08:38:03;7.15;;;2.78;;
21546;SDS011;41275;51.912;4.388;2023-12-04T08:43:25;5.07;;;2.50;;
21546;SDS011;41275;51.912;4.388;2023-12-04T08:48:46;6.20;;;2.70;;
21546;SDS011;41275;51.912;4.388;2023-12-04T08:54:07;7.78;;;2.72;;
21546;SDS011;41275;51.912;4.388;2023-12-04T08:59:28;7.38;;;2.70;;
21546;SDS011;41275;51.912;4.388;2023-12-04T09:04:50;6.47;;;2.70;;
21546;SDS011;41275;51.912;4.388;2023-12-04T09:10:13;6.65;;;2.97;;
21546;SDS011;41275;51.912;4.388;2023-12-04T09:15:34;5.63;;;2.80;;
21546;SDS011;41275;51.912;4.388;2023-12-04T09:20:55;5.50;;;2.70;;
21546;SDS011;41275;51.912;4.388;2023-12-04T09:26:16;6.50;;;2.83;;
21546;SDS011;41275;51.912;4.388;2023-12-04T09:31:38;6.65;;;3.03;;
21546;SDS011;41275;51.912;4.388;2023-12-04T09:36:59;7.88;;;2.90;;
21546;SDS011;41275;51.912;4.388;2023-12-04T09:42:20;8.03;;;2.77;;
21546;SDS011;41275;51.912;4.388;2023-12-04T09:47:42;4.95;;;2.40;;
21546;SDS011;41275;51.912;4.388;2023-12-04T09:53:03;5.13;;;2.72;;
21546;SDS011;41275;51.912;4.388;2023-12-04T09:58:27;4.88;;;2.50;;
21546;SDS011;41275;51.912;4.388;2023-12-04T10:03:53;6.40;;;2.55;;
21546;SDS011;41275;51.912;4.388;2023-12-04T10:09:14;7.47;;;2.90;;
21546;SDS011;41275;51.912;4.388;2023-12-04T10:14:38;4.93;;;2.47;;
21546;SDS011;41275;51.912;4.388;2023-12-04T10:20:06;4.50;;;2.50;;
21546;SDS011;41275;51.912;4.388;2023-12-04T10:25:33;5.13;;;2.70;;
21546;SDS011;41275;51.912;4.388;2023-12-04T10:30:54;8.13;;;3.00;;
21546;SDS011;41275;51.912;4.388;2023-12-04T10:36:15;5.18;;;2.35;;
21546;SDS011;41275;51.912;4.388;2023-12-04T10:41:38;5.80;;;2.77;;
21546;SDS011;41275;51.912;4.388;2023-12-04T10:47:00;6.65;;;2.60;;
21546;SDS011;41275;51.912;4.388;2023-12-04T10:52:23;4.57;;;2.22;;
21546;SDS011;41275;51.912;4.388;2023-12-04T10:57:44;4.85;;;2.28;;
21546;SDS011;41275;51.912;4.388;2023-12-04T11:03:09;5.50;;;2.23;;
21546;SDS011;41275;51.912;4.388;2023-12-04T11:08:32;5.05;;;2.40;;
21546;SDS011;41275;51.912;4.388;2023-12-04T11:13:56;6.32;;;2.35;;
21546;SDS011;41275;51.912;4.388;2023-12-04T11:25:20;5.35;;;2.50;;
21546;SDS011;41275;51.912;4.388;2023-12-04T11:30:44;6.97;;;2.45;;
21546;SDS011;41275;51.912;4.388;2023-12-04T11:36:10;4.88;;;2.45;;
21546;SDS011;41275;51.912;4.388;2023-12-04T11:41:33;5.35;;;2.33;;
21546;SDS011;41275;51.912;4.388;2023-12-04T11:46:56;6.53;;;2.43;;
21546;SDS011;41275;51.912;4.388;2023-12-04T11:52:32;4.97;;;2.53;;
21546;SDS011;41275;51.912;4.388;2023-12-04T11:57:55;6.83;;;2.23;;
21546;SDS011;41275;51.912;4.388;2023-12-04T12:03:18;7.13;;;2.30;;
21546;SDS011;41275;51.912;4.388;2023-12-04T12:08:42;4.93;;;1.88;;
21546;SDS011;41275;51.912;4.388;2023-12-04T12:14:03;5.07;;;2.13;;
21546;SDS011;41275;51.912;4.388;2023-12-04T12:19:26;5.13;;;2.40;;
21546;SDS011;41275;51.912;4.388;2023-12-04T12:24:47;5.00;;;2.08;;
21546;SDS011;41275;51.912;4.388;2023-12-04T12:30:08;5.63;;;2.03;;
21546;SDS011;41275;51.912;4.388;2023-12-04T12:35:29;6.88;;;2.22;;
21546;SDS011;41275;51.912;4.388;2023-12-04T12:40:51;3.80;;;2.28;;
21546;SDS011;41275;51.912;4.388;2023-12-04T12:46:12;4.93;;;2.33;;
21546;SDS011;41275;51.912;4.388;2023-12-04T12:51:34;7.27;;;1.90;;
21546;SDS011;41275;51.912;4.388;2023-12-04T12:56:55;5.87;;;2.17;;
21546;SDS011;41275;51.912;4.388;2023-12-04T13:02:17;4.72;;;2.10;;
21546;SDS011;41275;51.912;4.388;2023-12-04T13:07:38;4.40;;;2.13;;
21546;SDS011;41275;51.912;4.388;2023-12-04T13:12:59;5.97;;;2.28;;
21546;SDS011;41275;51.912;4.388;2023-12-04T13:18:21;6.40;;;2.38;;
21546;SDS011;41275;51.912;4.388;2023-12-04T13:23:42;4.67;;;2.43;;
21546;SDS011;41275;51.912;4.388;2023-12-04T13:29:03;5.28;;;2.15;;
21546;SDS011;41275;51.912;4.388;2023-12-04T13:34:24;4.25;;;2.20;;
21546;SDS011;41275;51.912;4.388;2023-12-04T13:39:45;5.95;;;2.72;;
21546;SDS011;41275;51.912;4.388;2023-12-04T13:45:12;6.88;;;2.70;;
21546;SDS011;41275;51.912;4.388;2023-12-04T13:50:33;4.17;;;2.20;;
21546;SDS011;41275;51.912;4.388;2023-12-04T13:55:54;6.38;;;2.60;;
21546;SDS011;41275;51.912;4.388;2023-12-04T14:01:15;5.88;;;2.20;;
21546;SDS011;41275;51.912;4.388;2023-12-04T14:06:43;5.07;;;2.65;;
21546;SDS011;41275;51.912;4.388;2023-12-04T14:12:05;5.83;;;2.80;;
21546;SDS011;41275;51.912;4.388;2023-12-04T14:17:27;7.13;;;2.97;;
21546;SDS011;41275;51.912;4.388;2023-12-04T14:22:48;6.13;;;2.87;;
21546;SDS011;41275;51.912;4.388;2023-12-04T14:28:09;6.63;;;2.87;;
21546;SDS011;41275;51.912;4.388;2023-12-04T14:33:31;5.82;;;2.97;;
21546;SDS011;41275;51.912;4.388;2023-12-04T14:38:52;6.20;;;2.85;;
21546;SDS011;41275;51.912;4.388;2023-12-04T14:44:14;6.47;;;3.07;;
21546;SDS011;41275;51.912;4.388;2023-12-04T14:49:35;5.88;;;2.97;;
21546;SDS011;41275;51.912;4.388;2023-12-04T14:54:57;7.38;;;2.80;;
21546;SDS011;41275;51.912;4.388;2023-12-04T15:00:18;5.80;;;2.63;;
21546;SDS011;41275;51.912;4.388;2023-12-04T15:05:58;6.20;;;3.13;;
21546;SDS011;41275;51.912;4.388;2023-12-04T15:11:42;7.47;;;3.65;;
21546;SDS011;41275;51.912;4.388;2023-12-04T15:17:23;6.47;;;3.05;;
21546;SDS011;41275;51.912;4.388;2023-12-04T15:22:54;6.05;;;3.30;;
21546;SDS011;41275;51.912;4.388;2023-12-04T15:28:15;8.63;;;3.35;;
21546;SDS011;41275;51.912;4.388;2023-12-04T15:33:36;9.00;;;3.90;;
21546;SDS011;41275;51.912;4.388;2023-12-04T15:38:58;8.05;;;4.20;;
21546;SDS011;41275;51.912;4.388;2023-12-04T15:44:19;7.13;;;3.65;;
21546;SDS011;41275;51.912;4.388;2023-12-04T15:49:42;9.87;;;3.83;;
21546;SDS011;41275;51.912;4.388;2023-12-04T15:55:03;7.20;;;3.67;;
21546;SDS011;41275;51.912;4.388;2023-12-04T16:00:25;7.32;;;3.85;;
21546;SDS011;41275;51.912;4.388;2023-12-04T16:05:46;8.45;;;3.88;;
21546;SDS011;41275;51.912;4.388;2023-12-04T16:11:08;7.47;;;3.63;;
21546;SDS011;41275;51.912;4.388;2023-12-04T16:16:29;9.45;;;3.88;;
21546;SDS011;41275;51.912;4.388;2023-12-04T16:21:51;8.13;;;4.30;;
21546;SDS011;41275;51.912;4.388;2023-12-04T16:27:12;7.80;;;4.03;;
21546;SDS011;41275;51.912;4.388;2023-12-04T16:32:33;8.57;;;4.05;;
21546;SDS011;41275;51.912;4.388;2023-12-04T16:37:55;7.78;;;3.83;;
21546;SDS011;41275;51.912;4.388;2023-12-04T16:43:17;7.87;;;4.03;;
21546;SDS011;41275;51.912;4.388;2023-12-04T16:48:38;7.85;;;4.15;;
21546;SDS011;41275;51.912;4.388;2023-12-04T16:53:59;7.55;;;3.95;;
21546;SDS011;41275;51.912;4.388;2023-12-04T16:59:21;7.47;;;3.90;;
21546;SDS011;41275;51.912;4.388;2023-12-04T17:04:42;7.83;;;3.87;;
21546;SDS011;41275;51.912;4.388;2023-12-04T17:10:03;7.45;;;4.00;;
21546;SDS011;41275;51.912;4.388;2023-12-04T17:15:27;8.90;;;4.60;;
21546;SDS011;41275;51.912;4.388;2023-12-04T17:20:48;8.98;;;4.40;;
21546;SDS011;41275;51.912;4.388;2023-12-04T17:26:09;10.27;;;4.97;;
21546;SDS011;41275;51.912;4.388;2023-12-04T17:31:30;8.98;;;4.97;;
21546;SDS011;41275;51.912;4.388;2023-12-04T17:36:52;9.27;;;5.20;;
21546;SDS011;41275;51.912;4.388;2023-12-04T17:42:13;8.98;;;5.03;;
21546;SDS011;41275;51.912;4.388;2023-12-04T17:47:35;8.82;;;5.22;;
21546;SDS011;41275;51.912;4.388;2023-12-04T17:52:57;9.70;;;5.43;;
21546;SDS011;41275;51.912;4.388;2023-12-04T17:58:18;9.18;;;5.05;;
21546;SDS011;41275;51.912;4.388;2023-12-04T18:03:40;12.10;;;5.50;;
21546;SDS011;41275;51.912;4.388;2023-12-04T18:09:01;9.20;;;5.30;;
21546;SDS011;41275;51.912;4.388;2023-12-04T18:14:22;8.30;;;5.10;;
21546;SDS011;41275;51.912;4.388;2023-12-04T18:19:43;9.37;;;5.07;;
21546;SDS011;41275;51.912;4.388;2023-12-04T18:25:05;8.70;;;5.13;;
21546;SDS011;41275;51.912;4.388;2023-12-04T18:30:27;9.05;;;5.25;;
21546;SDS011;41275;51.912;4.388;2023-12-04T18:35:49;9.75;;;5.50;;
21546;SDS011;41275;51.912;4.388;2023-12-04T18:41:11;12.18;;;6.07;;
21546;SDS011;41275;51.912;4.388;2023-12-04T18:46:32;7.70;;;4.73;;
21546;SDS011;41275;51.912;4.388;2023-12-04T18:51:54;11.35;;;5.80;;
21546;SDS011;41275;51.912;4.388;2023-12-04T18:57:15;10.90;;;6.10;;
21546;SDS011;41275;51.912;4.388;2023-12-04T19:02:37;13.38;;;6.18;;
21546;SDS011;41275;51.912;4.388;2023-12-04T19:07:58;10.07;;;5.83;;
21546;SDS011;41275;51.912;4.388;2023-12-04T19:13:19;12.13;;;6.40;;
21546;SDS011;41275;51.912;4.388;2023-12-04T19:18:41;11.93;;;6.75;;
21546;SDS011;41275;51.912;4.388;2023-12-04T19:24:02;12.47;;;6.30;;
21546;SDS011;41275;51.912;4.388;2023-12-04T19:29:24;11.15;;;5.63;;
21546;SDS011;41275;51.912;4.388;2023-12-04T19:34:45;10.87;;;6.47;;
21546;SDS011;41275;51.912;4.388;2023-12-04T19:40:06;10.40;;;5.75;;
21546;SDS011;41275;51.912;4.388;2023-12-04T19:45:32;10.85;;;6.00;;
21546;SDS011;41275;51.912;4.388;2023-12-04T19:50:53;10.43;;;5.70;;
21546;SDS011;41275;51.912;4.388;2023-12-04T19:56:15;10.23;;;5.80;;
21546;SDS011;41275;51.912;4.388;2023-12-04T20:01:37;10.27;;;5.63;;
21546;SDS011;41275;51.912;4.388;2023-12-04T20:06:58;10.63;;;5.97;;
21546;SDS011;41275;51.912;4.388;2023-12-04T20:12:20;7.93;;;5.15;;
21546;SDS011;41275;51.912;4.388;2023-12-04T20:17:41;10.57;;;5.40;;
21546;SDS011;41275;51.912;4.388;2023-12-04T20:23:03;9.27;;;5.35;;
21546;SDS011;41275;51.912;4.388;2023-12-04T20:28:24;9.43;;;6.03;;
21546;SDS011;41275;51.912;4.388;2023-12-04T20:33:45;12.65;;;5.30;;
21546;SDS011;41275;51.912;4.388;2023-12-04T20:39:07;10.23;;;5.73;;
21546;SDS011;41275;51.912;4.388;2023-12-04T20:44:29;10.57;;;5.70;;
21546;SDS011;41275;51.912;4.388;2023-12-04T20:49:50;11.57;;;5.85;;
21546;SDS011;41275;51.912;4.388;2023-12-04T20:55:11;9.93;;;5.53;;
21546;SDS011;41275;51.912;4.388;2023-12-04T21:00:33;8.00;;;5.17;;
21546;SDS011;41275;51.912;4.388;2023-12-04T21:05:55;9.70;;;5.13;;
21546;SDS011;41275;51.912;4.388;2023-12-04T21:11:16;10.23;;;5.80;;
21546;SDS011;41275;51.912;4.388;2023-12-04T21:16:37;9.65;;;5.72;;
21546;SDS011;41275;51.912;4.388;2023-12-04T21:21:58;12.63;;;6.20;;
21546;SDS011;41275;51.912;4.388;2023-12-04T21:27:20;9.53;;;5.73;;
21546;SDS011;41275;51.912;4.388;2023-12-04T21:32:42;9.07;;;5.53;;
21546;SDS011;41275;51.912;4.388;2023-12-04T21:38:04;10.73;;;5.97;;
21546;SDS011;41275;51.912;4.388;2023-12-04T21:43:25;10.45;;;6.28;;
21546;SDS011;41275;51.912;4.388;2023-12-04T21:48:47;11.07;;;6.45;;
21546;SDS011;41275;51.912;4.388;2023-12-04T21:54:08;11.93;;;6.07;;
21546;SDS011;41275;51.912;4.388;2023-12-04T21:59:29;10.73;;;5.78;;
21546;SDS011;41275;51.912;4.388;2023-12-04T22:04:51;10.55;;;6.22;;
21546;SDS011;41275;51.912;4.388;2023-12-04T22:10:12;11.87;;;5.80;;
21546;SDS011;41275;51.912;4.388;2023-12-04T22:15:33;10.82;;;6.13;;
21546;SDS011;41275;51.912;4.388;2023-12-04T22:20:54;11.00;;;6.25;;
21546;SDS011;41275;51.912;4.388;2023-12-04T22:26:16;11.33;;;6.53;;
21546;SDS011;41275;51.912;4.388;2023-12-04T22:31:37;10.65;;;6.40;;
21546;SDS011;41275;51.912;4.388;2023-12-04T22:36:58;10.80;;;5.88;;
21546;SDS011;41275;51.912;4.388;2023-12-04T22:42:20;11.80;;;6.20;;
21546;SDS011;41275;51.912;4.388;2023-12-04T22:47:41;9.68;;;5.32;;
21546;SDS011;41275;51.912;4.388;2023-12-04T22:53:03;10.07;;;5.67;;
21546;SDS011;41275;51.912;4.388;2023-12-04T22:58:24;8.98;;;5.30;;
21546;SDS011;41275;51.912;4.388;2023-12-04T23:03:45;10.63;;;6.10;;
21546;SDS011;41275;51.912;4.388;2023-12-04T23:09:07;11.13;;;5.43;;
21546;SDS011;41275;51.912;4.388;2023-12-04T23:14:28;10.63;;;6.15;;
21546;SDS011;41275;51.912;4.388;2023-12-04T23:19:49;10.45;;;6.00;;
21546;SDS011;41275;51.912;4.388;2023-12-04T23:25:11;10.63;;;6.05;;
21546;SDS011;41275;51.912;4.388;2023-12-04T23:30:33;10.07;;;5.77;;
21546;SDS011;41275;51.912;4.388;2023-12-04T23:35:54;10.40;;;6.13;;
21546;SDS011;41275;51.912;4.388;2023-12-04T23:41:15;11.45;;;6.40;;
21546;SDS011;41275;51.912;4.388;2023-12-04T23:46:37;11.03;;;6.30;;
21546;SDS011;41275;51.912;4.388;2023-12-04T23:51:58;10.30;;;6.25;;
21546;SDS011;41275;51.912;4.388;2023-12-04T23:57:19;9.95;;;6.10;;
